Time;durP1;ratioP1;P1;durP2;ratioP2;P2;SDS_P1;SDS_P2;PMS_P1;PMS_P2;Temp;Humidity;BMP_temperature;BMP_pressure;BME280_temperature;BME280_humidity;BME280_pressure;Samples;Min_cycle;Max_cycle;Signal;HPM_P1;HPM_P2
2022/11/18 00:02:20;;;;;;;5.15;4.68;;;;;;;6.68;100.00;99510.13;5245514;28;20029;-91
2022/11/18 00:04:50;;;;;;;8.02;5.57;;;;;;;5.96;100.00;99431.31;5247775;28;20040;-91
2022/11/18 00:07:20;;;;;;;4.75;4.20;;;;;;;6.56;100.00;99488.13;5249890;28;20055;-89
2022/11/18 00:09:51;;;;;;;7.05;5.03;;;;;;;6.56;100.00;99491.63;5248775;28;20104;-89
2022/11/18 00:15:13;;;;;;;4.18;3.60;;;;;;;6.72;100.00;99519.28;5239937;28;20044;-89
2022/11/18 00:17:44;;;;;;;4.93;4.40;;;;;;;6.40;100.00;99481.88;5239703;28;20021;-89
2022/11/18 00:20:14;;;;;;;4.57;4.00;;;;;;;6.70;100.00;99516.84;5238959;28;20047;-90
2022/11/18 00:22:45;;;;;;;4.60;4.30;;;;;;;5.86;100.00;99385.66;5238671;28;20048;-89
2022/11/18 00:25:15;;;;;;;5.05;4.47;;;;;;;6.53;100.00;99492.13;5238705;28;20029;-90
2022/11/18 00:27:45;;;;;;;4.30;4.10;;;;;;;6.47;100.00;99474.41;5239177;28;20028;-91
2022/11/18 00:30:16;;;;;;;5.95;5.45;;;;;;;6.43;100.00;99473.31;5238319;28;20032;-90
2022/11/18 00:32:47;;;;;;;5.05;4.72;;;;;;;6.96;100.00;99546.44;5239207;28;20048;-89
2022/11/18 00:35:17;;;;;;;4.70;3.92;;;;;;;5.79;100.00;99358.31;5237683;28;20017;-90
2022/11/18 00:37:47;;;;;;;4.10;3.90;;;;;;;6.58;100.00;99492.16;5239238;28;20482;-89
2022/11/18 00:40:18;;;;;;;6.68;3.83;;;;;;;6.68;100.00;99510.13;5243190;28;20032;-90
2022/11/18 00:42:51;;;;;;;9.70;4.82;;;;;;;6.35;100.00;99458.53;5244218;28;20044;-91
2022/11/18 00:45:23;;;;;;;4.97;4.57;;;;;;;6.80;100.00;99520.66;5242274;28;20025;-91
2022/11/18 00:47:53;;;;;;;5.43;3.72;;;;;;;7.07;100.00;99556.16;5243496;28;20025;-90
2022/11/18 00:50:24;;;;;;;8.13;3.53;;;;;;;6.07;100.00;99419.53;5240762;28;20067;-90
2022/11/18 00:52:54;;;;;;;4.40;4.03;;;;;;;6.37;100.00;99487.75;5243339;28;20031;-90
2022/11/18 00:55:24;;;;;;;4.55;4.15;;;;;;;6.37;100.00;99495.81;5238426;28;20025;-90
2022/11/18 00:57:55;;;;;;;5.20;4.70;;;;;;;6.87;100.00;99522.03;5238736;28;20029;-90
2022/11/18 01:00:25;;;;;;;8.90;4.15;;;;;;;6.01;100.00;99407.22;5238262;28;20028;-90
2022/11/18 01:02:56;;;;;;;5.18;3.90;;;;;;;6.68;100.00;99481.44;5238626;28;20025;-88
2022/11/18 01:05:26;;;;;;;3.97;3.75;;;;;;;6.02;100.00;99376.69;5236483;28;20048;-90
2022/11/18 01:07:56;;;;;;;10.45;3.70;;;;;;;6.99;100.00;99532.50;5237824;28;20099;-91
2022/11/18 01:10:27;;;;;;;4.15;3.78;;;;;;;6.69;100.00;99479.56;5237744;28;20433;-91
2022/11/18 01:15:52;;;;;;;3.63;3.42;;;;;;;6.82;100.00;99521.19;5237930;28;20044;-90
2022/11/18 01:18:26;;;;;;;3.80;3.50;;;;;;;6.57;100.00;99463.72;5237059;28;20029;-91
2022/11/18 01:21:01;;;;;;;4.55;4.15;;;;;;;5.82;100.00;99325.66;5238137;28;20045;-91
2022/11/18 01:23:32;;;;;;;3.72;3.45;;;;;;;6.82;100.00;99518.50;5237062;28;20032;-91
2022/11/18 01:26:07;;;;;;;3.65;3.47;;;;;;;6.35;100.00;99428.25;5236844;28;20041;-90
2022/11/18 01:28:38;;;;;;;3.33;3.13;;;;;;;7.27;100.00;99585.72;5236869;28;20029;-89
2022/11/18 01:31:15;;;;;;;3.75;3.55;;;;;;;6.22;100.00;99455.53;5236717;28;20395;-89
2022/11/18 01:33:46;;;;;;;4.05;3.83;;;;;;;7.25;100.00;99627.34;5236199;28;20249;-91
2022/11/18 01:36:23;;;;;;;3.97;3.55;;;;;;;5.92;100.00;99446.28;5236624;28;20588;-90
2022/11/18 01:38:55;;;;;;;3.80;3.35;;;;;;;7.06;100.00;99574.13;5238069;28;20036;-90
2022/11/18 01:41:31;;;;;;;3.72;3.40;;;;;;;6.44;100.00;99525.88;5238423;28;20078;-87
2022/11/18 01:44:24;;;;;;;3.33;3.13;;;;;;;5.64;100.00;99375.13;5237288;28;20044;-89
2022/11/18 01:46:54;;;;;;;4.10;3.83;;;;;;;6.27;100.00;99459.06;5238803;28;20053;-89
2022/11/18 01:49:25;;;;;;;3.53;3.28;;;;;;;6.14;100.00;99440.75;5242206;28;20025;-90
2022/11/18 01:51:57;;;;;;;4.80;4.50;;;;;;;5.58;100.00;99380.69;5241075;28;20021;-91
2022/11/18 01:54:34;;;;;;;3.80;3.50;;;;;;;5.80;100.00;99384.03;5241603;28;20025;-90
2022/11/18 01:57:12;;;;;;;4.57;3.40;;;;;;;5.60;100.00;99362.50;5240979;28;20033;-90
2022/11/18 01:59:45;;;;;;;2.97;2.88;;;;;;;5.84;100.00;99419.94;5240688;28;20497;-91
2022/11/18 02:02:16;;;;;;;14.18;3.58;;;;;;;5.89;100.00;99389.72;5241153;28;20046;-89
2022/11/18 02:04:48;;;;;;;3.78;3.58;;;;;;;6.90;100.00;99542.97;5239805;28;20116;-89
2022/11/18 02:07:20;;;;;;;3.88;3.67;;;;;;;6.46;100.00;99494.25;5241765;28;20032;-89
2022/11/18 02:09:52;;;;;;;4.43;4.13;;;;;;;7.45;100.00;99687.31;5242030;28;20024;-89
2022/11/18 02:12:22;;;;;;;3.25;2.95;;;;;;;6.39;100.00;99525.84;5242204;28;20025;-90
2022/11/18 02:14:53;;;;;;;3.50;3.30;;;;;;;6.97;100.00;99623.22;5240899;28;20051;-90
2022/11/18 02:17:43;;;;;;;3.60;3.22;;;;;;;7.28;100.00;99651.78;5239908;28;20094;-90
2022/11/18 02:20:23;;;;;;;;;;;;;;;7.20;100.00;99660.38;5240312;28;20024;-90
2022/11/18 02:23:25;;;;;;;4.05;3.85;;;;;;;5.48;100.00;99421.63;5240628;28;19954;-89
2022/11/18 02:26:16;;;;;;;5.18;4.10;;;;;;;7.07;100.00;99674.25;5232225;28;20037;-90
2022/11/18 02:29:08;;;;;;;4.07;3.80;;;;;;;5.66;100.00;99495.38;5239554;28;20051;-90
2022/11/18 02:32:38;;;;;;;4.50;4.10;;;;;;;6.76;100.00;99646.47;5239855;28;20051;-91
2022/11/18 02:35:32;;;;;;;13.27;4.27;;;;;;;5.42;100.00;99466.28;5214257;28;20041;-90
2022/11/18 02:38:08;;;;;;;3.78;3.58;;;;;;;5.31;100.00;99469.94;5239627;28;20568;-89
2022/11/18 02:40:46;;;;;;;4.88;4.15;;;;;;;6.11;100.00;99607.44;5241381;28;20017;-89
2022/11/18 02:43:28;;;;;;;4.05;3.85;;;;;;;6.75;100.00;99690.47;5241280;28;20120;-90
2022/11/18 02:46:05;;;;;;;3.65;3.33;;;;;;;6.23;100.00;99652.84;5240998;28;20029;-89
2022/11/18 02:48:40;;;;;;;3.75;2.90;;;;;;;6.04;100.00;99604.19;5239466;28;20063;-89
2022/11/18 02:51:12;;;;;;;4.32;4.13;;;;;;;5.71;100.00;99557.84;5240223;28;20403;-90
2022/11/18 02:53:46;;;;;;;4.63;4.20;;;;;;;6.20;100.00;99682.84;5240615;28;20025;-90
2022/11/18 02:56:19;;;;;;;8.10;4.38;;;;;;;5.46;100.00;99554.13;5238120;28;20033;-89
2022/11/18 02:58:51;;;;;;;8.90;4.10;;;;;;;4.79;100.00;99442.19;5238714;28;20017;-90
2022/11/18 03:01:28;;;;;;;4.55;4.15;;;;;;;4.79;100.00;99468.94;5240016;28;20036;-89
2022/11/18 03:03:58;;;;;;;4.03;3.72;;;;;;;5.00;100.00;99540.28;5239008;28;20618;-90
2022/11/18 03:06:48;;;;;;;3.20;3.00;;;;;;;5.97;100.00;99700.88;5238936;28;20112;-91
2022/11/18 03:09:21;;;;;;;;;;;;;;;6.15;100.00;99707.72;5240743;28;20028;-89
2022/11/18 03:12:11;;;;;;;6.97;3.50;;;;;;;4.61;100.00;99511.00;5240343;28;19909;-89
2022/11/18 03:14:46;;;;;;;4.53;3.55;;;;;;;5.36;100.00;99614.53;5239984;28;20024;-90
2022/11/18 03:17:47;;;;;;;3.90;3.70;;;;;;;6.01;100.00;99723.44;5238875;28;20067;-89
2022/11/18 03:20:28;;;;;;;4.00;3.70;;;;;;;5.94;100.00;99725.50;5240435;28;20043;-89
2022/11/18 03:23:02;;;;;;;4.35;4.05;;;;;;;5.89;100.00;99728.13;5239840;28;20076;-90
2022/11/18 03:25:47;;;;;;;6.03;4.32;;;;;;;5.84;100.00;99744.09;5238899;28;20035;-90
2022/11/18 03:28:51;;;;;;;4.47;3.47;;;;;;;4.48;100.00;99562.16;5239120;28;20486;-90
2022/11/18 03:31:28;;;;;;;4.07;3.60;;;;;;;5.07;100.00;99669.34;5220390;28;20035;-90
2022/11/18 03:34:05;;;;;;;4.68;4.32;;;;;;;4.66;100.00;99615.31;5237531;28;20032;-89
2022/11/18 03:36:40;;;;;;;3.30;3.20;;;;;;;4.23;100.00;99554.59;5238139;28;20041;-90
2022/11/18 03:39:14;;;;;;;4.07;3.88;;;;;;;4.04;100.00;99505.97;5238480;28;20094;-90
2022/11/18 03:41:55;;;;;;;4.20;3.47;;;;;;;5.60;100.00;99767.69;5238636;28;20036;-89
2022/11/18 03:44:30;;;;;;;5.22;3.47;;;;;;;4.38;100.00;99608.25;5237893;28;20040;-89
2022/11/18 03:47:18;;;;;;;5.32;4.82;;;;;;;4.81;100.00;99654.03;5238429;28;20055;-90
2022/11/18 03:50:03;;;;;;;6.55;3.90;;;;;;;4.01;100.00;99545.75;5238344;28;20079;-90
2022/11/18 03:52:36;;;;;;;3.78;3.58;;;;;;;3.88;100.00;99532.72;5238570;28;20021;-90
2022/11/18 03:55:24;;;;;;;4.75;4.35;;;;;;;4.94;100.00;99707.94;5238647;28;20032;-90
2022/11/18 03:58:09;;;;;;;4.35;3.92;;;;;;;4.35;100.00;99619.44;5234943;28;20495;-91
2022/11/18 04:00:44;;;;;;;4.50;4.20;;;;;;;4.39;100.00;99635.78;5239286;28;20039;-90
2022/11/18 04:03:15;;;;;;;3.80;3.60;;;;;;;4.28;100.00;99655.41;5238529;28;20029;-89
2022/11/18 04:05:50;;;;;;;8.35;4.80;;;;;;;4.59;100.00;99668.19;5239695;28;20113;-90
2022/11/18 04:08:25;;;;;;;5.78;5.32;;;;;;;3.64;100.00;99522.22;5236580;28;20028;-88
2022/11/18 04:11:07;;;;;;;4.88;4.43;;;;;;;3.82;100.00;99603.13;5238726;28;20028;-90
2022/11/18 04:13:38;;;;;;;4.65;4.20;;;;;;;3.79;100.00;99636.44;5238901;28;20124;-90
2022/11/18 04:16:10;;;;;;;3.83;3.53;;;;;;;4.17;100.00;99675.00;5239790;28;20106;-90
2022/11/18 04:18:40;;;;;;;4.32;4.05;;;;;;;3.30;100.00;99526.75;5238261;28;20029;-91
2022/11/18 04:21:11;;;;;;;5.13;4.93;;;;;;;3.69;100.00;99607.75;5239158;28;20017;-91
2022/11/18 04:23:41;;;;;;;5.07;4.05;;;;;;;3.20;100.00;99547.09;5238613;28;20033;-91
2022/11/18 04:26:12;;;;;;;5.07;4.75;;;;;;;3.54;100.00;99606.66;5238611;28;20057;-90
2022/11/18 04:28:43;;;;;;;3.70;3.53;;;;;;;3.73;100.00;99643.59;5238449;28;20020;-90
2022/11/18 04:31:13;;;;;;;4.18;3.97;;;;;;;3.65;100.00;99611.13;5238068;28;20021;-90
2022/11/18 04:33:44;;;;;;;4.80;4.53;;;;;;;3.28;100.00;99550.19;5238094;28;20047;-91
2022/11/18 04:36:15;;;;;;;4.22;3.95;;;;;;;3.15;100.00;99555.03;5238644;28;20123;-91
2022/11/18 04:38:46;;;;;;;17.60;4.72;;;;;;;3.01;100.00;99579.28;5238064;28;20395;-91
2022/11/18 04:41:19;;;;;;;4.80;4.43;;;;;;;4.72;100.00;99806.06;5239447;28;20072;-91
2022/11/18 04:43:49;;;;;;;8.10;5.88;;;;;;;4.27;100.00;99763.38;5237546;28;20051;-90
2022/11/18 04:46:20;;;;;;;4.82;4.50;;;;;;;3.86;100.00;99725.25;5237508;28;20089;-91
2022/11/18 04:48:52;;;;;;;6.57;4.57;;;;;;;3.68;100.00;99682.72;5238358;28;20074;-91
2022/11/18 04:51:22;;;;;;;4.20;4.00;;;;;;;4.80;100.00;99823.56;5237732;28;20028;-91
2022/11/18 04:53:52;;;;;;;5.47;4.82;;;;;;;3.12;100.00;99606.16;5238591;28;20029;-91
2022/11/18 04:56:23;;;;;;;5.63;4.38;;;;;;;3.71;100.00;99709.78;5237987;28;20029;-90
2022/11/18 04:58:53;;;;;;;5.30;4.72;;;;;;;3.10;100.00;99589.59;5238124;28;20487;-91
2022/11/18 05:01:24;;;;;;;5.18;4.93;;;;;;;3.94;100.00;99732.06;5237919;28;20025;-91
2022/11/18 05:03:56;;;;;;;4.75;4.43;;;;;;;3.46;100.00;99663.94;5237334;28;20027;-92
2022/11/18 05:06:28;;;;;;;6.30;5.90;;;;;;;4.15;100.00;99759.94;5238156;28;20021;-90
2022/11/18 05:09:00;;;;;;;6.22;5.72;;;;;;;3.08;100.00;99559.69;5237943;28;20025;-91
2022/11/18 05:14:20;;;;;;;12.15;6.10;;;;;;;4.19;100.00;99785.94;5238597;28;20053;-92
2022/11/18 05:16:51;;;;;;;5.22;4.93;;;;;;;3.21;100.00;99644.75;5237376;28;20025;-89
2022/11/18 05:19:22;;;;;;;6.20;4.68;;;;;;;3.00;100.00;99616.88;5237586;28;20111;-91
2022/11/18 05:21:53;;;;;;;5.75;5.25;;;;;;;3.28;100.00;99646.22;5239835;28;20040;-90
2022/11/18 05:24:24;;;;;;;5.53;5.05;;;;;;;3.73;100.00;99702.31;5241088;28;20028;-91
2022/11/18 05:26:55;;;;;;;5.03;4.68;;;;;;;3.23;100.00;99678.13;5241987;28;20017;-90
2022/11/18 05:29:25;;;;;;;8.90;5.55;;;;;;;4.32;100.00;99832.94;5241375;28;20024;-91
2022/11/18 05:31:56;;;;;;;5.38;4.90;;;;;;;4.65;100.00;99891.78;5241213;28;20013;-90
2022/11/18 05:34:26;;;;;;;5.35;5.05;;;;;;;3.48;100.00;99715.19;5242101;28;20025;-90
2022/11/18 05:36:57;;;;;;;5.22;4.85;;;;;;;2.86;100.00;99615.53;5242030;28;20060;-91
2022/11/18 05:39:28;;;;;;;5.85;5.10;;;;;;;3.28;100.00;99709.44;5240730;28;20028;-91
2022/11/18 05:44:50;;;;;;;6.38;5.78;;;;;;;4.49;100.00;99881.06;5263421;22;20060;-68
2022/11/18 05:47:23;;;;;;;5.88;5.50;;;;;;;4.57;100.00;99889.53;5249109;28;20035;-69
2022/11/18 05:49:54;;;;;;;5.20;5.00;;;;;;;4.58;100.00;99895.69;5246971;28;20170;-67
2022/11/18 05:52:24;;;;;;;5.97;5.40;;;;;;;4.51;100.00;99895.00;5228107;28;20020;-68
2022/11/18 05:54:55;;;;;;;5.93;5.53;;;;;;;4.50;100.00;99899.56;5228032;28;20067;-68
2022/11/18 05:57:25;;;;;;;4.75;4.50;;;;;;;4.51;100.00;99913.72;5211375;28;20021;-68
2022/11/18 05:59:55;;;;;;;8.10;6.10;;;;;;;4.50;100.00;99912.91;5227817;28;20035;-68
2022/11/18 06:02:29;;;;;;;5.95;5.43;;;;;;;4.43;100.00;99900.75;5229237;28;20020;-68
2022/11/18 06:05:03;;;;;;;7.75;6.78;;;;;;;4.47;100.00;99912.56;5227270;28;20089;-67
2022/11/18 06:07:42;;;;;;;12.73;5.90;;;;;;;4.50;100.00;99920.94;5227831;28;20397;-68
2022/11/18 06:10:29;;;;;;;6.95;6.40;;;;;;;4.57;100.00;99921.59;5227643;28;20021;-66
2022/11/18 06:13:05;;;;;;;5.13;4.82;;;;;;;4.64;100.00;99927.59;5227594;28;20082;-67
2022/11/18 06:15:42;;;;;;;7.22;6.63;;;;;;;4.61;100.00;99932.66;5227396;28;20477;-67
2022/11/18 06:18:23;;;;;;;5.68;5.32;;;;;;;4.50;100.00;99920.13;5227706;28;20417;-68
2022/11/18 06:20:58;;;;;;;5.47;5.00;;;;;;;4.50;100.00;99925.47;5223942;28;20033;-66
2022/11/18 06:23:36;;;;;;;5.05;4.75;;;;;;;4.47;100.00;99931.28;5225314;28;20028;-67
2022/11/18 06:26:08;;;;;;;6.22;5.85;;;;;;;4.57;100.00;99942.19;5226742;28;20025;-68
2022/11/18 06:28:39;;;;;;;5.47;5.18;;;;;;;4.53;100.00;99949.88;5227343;28;20485;-67
2022/11/18 06:31:09;;;;;;;7.13;6.45;;;;;;;4.50;100.00;99953.03;5226614;28;20021;-67
2022/11/18 06:33:40;;;;;;;5.75;5.35;;;;;;;4.53;100.00;99957.06;5227208;28;20056;-65
2022/11/18 06:36:10;;;;;;;6.18;5.75;;;;;;;4.56;100.00;99956.59;5226852;28;20021;-66
2022/11/18 06:38:41;;;;;;;4.70;4.43;;;;;;;4.54;100.00;99956.84;5226954;28;20097;-67
2022/11/18 06:41:11;;;;;;;6.68;5.85;;;;;;;4.51;100.00;99954.66;5226594;28;20451;-66
2022/11/18 06:43:42;;;;;;;5.53;5.28;;;;;;;4.53;100.00;99965.91;5226922;28;20493;-67
2022/11/18 06:49:04;;;;;;;6.47;4.68;;;;;;;4.35;100.00;99947.34;5228511;28;20064;-69
2022/11/18 06:51:34;;;;;;;7.63;5.63;;;;;;;4.56;100.00;99981.47;5226667;28;20300;-67
2022/11/18 06:54:05;;;;;;;5.60;4.75;;;;;;;4.39;100.00;99959.19;5227737;28;20036;-70
2022/11/18 06:56:36;;;;;;;6.07;5.43;;;;;;;4.49;100.00;99966.63;5227188;28;20074;-67
2022/11/18 06:59:07;;;;;;;5.18;4.97;;;;;;;4.55;100.00;99987.06;5226966;28;20032;-67
2022/11/18 07:01:40;;;;;;;4.55;4.35;;;;;;;4.48;100.00;99981.84;5225101;28;20020;-67
2022/11/18 07:04:10;;;;;;;5.40;4.47;;;;;;;4.40;100.00;99969.66;5226617;28;20072;-69
2022/11/18 07:06:41;;;;;;;12.25;5.72;;;;;;;4.54;100.00;99986.25;5226771;28;20489;-68
2022/11/18 07:09:11;;;;;;;5.65;5.25;;;;;;;4.60;100.00;100000.53;5228045;28;20546;-67
2022/11/18 07:11:42;;;;;;;6.53;5.80;;;;;;;4.58;100.00;99994.63;5226290;28;20067;-67
2022/11/18 07:14:12;;;;;;;6.13;5.22;;;;;;;4.60;100.00;100011.22;5226410;28;20488;-66
2022/11/18 07:16:43;;;;;;;6.32;5.75;;;;;;;4.63;100.00;99997.38;5226714;28;20021;-65
2022/11/18 07:19:13;;;;;;;6.68;5.10;;;;;;;4.64;100.00;100005.16;5226621;28;20025;-66
2022/11/18 07:21:44;;;;;;;9.27;5.30;;;;;;;4.65;100.00;100020.16;5226283;28;20323;-65
2022/11/18 07:24:15;;;;;;;7.88;5.55;;;;;;;4.74;100.00;100012.56;5225617;28;20082;-65
2022/11/18 07:26:45;;;;;;;10.38;4.95;;;;;;;4.84;100.00;100033.34;5226572;28;20477;-65
2022/11/18 07:29:16;;;;;;;5.55;5.10;;;;;;;4.81;100.00;100031.97;5225857;28;20318;-66
2022/11/18 07:31:46;;;;;;;12.85;7.20;;;;;;;4.77;100.00;100041.50;5224865;28;20021;-65
2022/11/18 07:34:17;;;;;;;8.52;7.25;;;;;;;4.84;100.00;100044.06;5224457;28;20021;-66
2022/11/18 07:36:47;;;;;;;6.70;5.43;;;;;;;4.89;100.00;100054.84;5226830;28;20074;-66
2022/11/18 07:39:18;;;;;;;6.03;5.65;;;;;;;4.93;100.00;100050.63;5224593;28;20055;-66
2022/11/18 07:41:48;;;;;;;7.57;6.47;;;;;;;5.00;100.00;100051.31;5223046;28;20025;-66
2022/11/18 07:44:19;;;;;;;6.40;5.78;;;;;;;5.04;100.00;100047.91;5224571;28;20528;-66
2022/11/18 07:46:49;;;;;;;7.32;6.90;;;;;;;5.07;100.00;100054.66;5225679;28;20044;-65
2022/11/18 07:49:20;;;;;;;6.53;6.13;;;;;;;5.11;100.00;100050.44;5225794;28;20071;-66
2022/11/18 07:51:50;;;;;;;8.43;7.72;;;;;;;5.06;100.00;100036.97;5224778;28;20044;-67
2022/11/18 07:54:21;;;;;;;7.22;6.65;;;;;;;5.07;100.00;100041.28;5225476;28;20048;-66
2022/11/18 07:56:51;;;;;;;7.03;6.60;;;;;;;5.19;100.00;100058.09;5225662;28;20035;-66
2022/11/18 07:59:21;;;;;;;6.72;5.35;;;;;;;5.11;100.00;100039.75;5223811;28;20033;-66
2022/11/18 08:01:52;;;;;;;11.80;7.90;;;;;;;5.24;100.00;100058.16;5225460;28;20032;-66
2022/11/18 08:04:23;;;;;;;8.73;6.90;;;;;;;5.13;100.00;100036.84;5225157;28;20029;-66
2022/11/18 08:06:53;;;;;;;8.05;5.72;;;;;;;5.34;100.00;100071.75;5225222;28;20025;-66
2022/11/18 08:09:24;;;;;;;13.48;6.15;;;;;;;5.36;100.00;100079.53;5225622;28;20025;-67
2022/11/18 08:11:54;;;;;;;10.38;6.20;;;;;;;5.38;100.00;100072.91;5225505;28;20017;-65
2022/11/18 08:14:27;;;;;;;6.15;5.55;;;;;;;5.40;100.00;100076.16;5225202;28;20303;-65
2022/11/18 08:16:57;;;;;;;6.28;5.68;;;;;;;5.44;100.00;100081.84;5225390;28;20078;-65
2022/11/18 08:19:28;;;;;;;5.88;5.20;;;;;;;5.49;100.00;100078.41;5225347;28;20067;-65
2022/11/18 08:21:58;;;;;;;6.25;5.75;;;;;;;5.49;100.00;100079.22;5224968;28;20078;-66
2022/11/18 08:24:29;;;;;;;6.45;5.75;;;;;;;5.50;100.00;100090.75;5224586;28;20021;-66
2022/11/18 08:26:59;;;;;;;6.53;5.18;;;;;;;5.48;100.00;100095.56;5224990;28;20052;-66
2022/11/18 08:29:30;;;;;;;7.28;5.78;;;;;;;5.47;100.00;100101.97;5226571;28;20137;-66
2022/11/18 08:32:01;;;;;;;7.70;5.95;;;;;;;5.46;100.00;100103.03;5225312;28;20032;-66
2022/11/18 08:34:31;;;;;;;6.82;5.05;;;;;;;5.42;100.00;100100.81;5225021;28;20071;-66
2022/11/18 08:37:02;;;;;;;7.95;7.18;;;;;;;5.58;100.00;100104.56;5224828;28;20057;-66
2022/11/18 08:39:32;;;;;;;7.85;6.22;;;;;;;5.65;100.00;100109.78;5224856;28;20021;-67
2022/11/18 08:42:03;;;;;;;12.60;6.45;;;;;;;5.71;100.00;100108.81;5224866;28;20039;-66
2022/11/18 08:44:33;;;;;;;5.50;4.93;;;;;;;5.72;100.00;100100.53;5224768;28;20090;-66
2022/11/18 08:47:04;;;;;;;6.43;5.43;;;;;;;5.89;100.00;100105.91;5222648;28;20025;-66
2022/11/18 08:49:34;;;;;;;19.67;8.05;;;;;;;6.06;100.00;100117.44;5223223;28;20056;-66
2022/11/18 08:52:05;;;;;;;8.07;7.22;;;;;;;6.05;100.00;100093.59;5222505;28;20048;-67
2022/11/18 08:54:35;;;;;;;6.60;5.93;;;;;;;6.27;100.00;100117.75;5220974;28;20176;-66
2022/11/18 08:57:06;;;;;;;6.70;6.15;;;;;;;6.41;100.00;100116.34;5221335;28;20039;-67
2022/11/18 08:59:36;;;;;;;6.22;5.57;;;;;;;6.28;100.00;100087.22;5223055;28;20473;-67
2022/11/18 09:02:15;;;;;;;7.22;5.80;;;;;;;6.64;100.00;100142.94;5220686;28;20463;-66
2022/11/18 09:04:46;;;;;;;6.13;4.72;;;;;;;6.73;100.00;100160.25;5223639;28;20481;-66
2022/11/18 09:07:19;;;;;;;5.13;4.72;;;;;;;6.83;100.00;100131.94;5223686;28;20027;-65
2022/11/18 09:09:49;;;;;;;6.53;6.00;;;;;;;6.97;100.00;100139.34;5224476;28;20029;-66
2022/11/18 09:12:20;;;;;;;6.30;4.95;;;;;;;6.90;100.00;100124.53;5222425;28;20535;-66
2022/11/18 09:14:50;;;;;;;5.55;5.10;;;;;;;7.09;100.00;100142.75;5223670;28;20086;-66
2022/11/18 09:17:20;;;;;;;5.97;5.60;;;;;;;7.14;100.00;100147.34;5224354;28;20116;-66
2022/11/18 09:19:51;;;;;;;7.55;5.90;;;;;;;7.21;100.00;100149.88;5224328;28;20035;-66
2022/11/18 09:22:21;;;;;;;8.57;6.93;;;;;;;7.25;100.00;100150.97;5224344;28;20017;-66
2022/11/18 09:24:52;;;;;;;5.05;4.68;;;;;;;7.33;100.00;100155.88;5224095;28;20035;-66
2022/11/18 09:27:22;;;;;;;5.35;4.97;;;;;;;7.36;100.00;100147.34;5224556;28;20037;-66
2022/11/18 09:29:53;;;;;;;4.72;4.28;;;;;;;7.45;100.00;100162.75;5224379;28;20063;-66
2022/11/18 09:32:23;;;;;;;5.50;5.20;;;;;;;7.48;100.00;100150.69;5225657;28;20025;-66
2022/11/18 09:34:54;;;;;;;3.88;3.67;;;;;;;7.51;100.00;100144.78;5224238;28;20031;-66
2022/11/18 09:37:24;;;;;;;8.05;5.28;;;;;;;7.63;100.00;100152.72;5224091;28;20024;-67
2022/11/18 09:39:54;;;;;;;11.77;6.60;;;;;;;7.70;100.00;100164.06;5224497;28;20029;-67
2022/11/18 09:42:31;;;;;;;5.70;4.85;;;;;;;7.72;100.00;100172.69;5224048;28;20505;-66
2022/11/18 09:45:11;;;;;;;3.83;3.63;;;;;;;7.80;100.00;100169.53;5223969;28;20086;-67
2022/11/18 09:47:41;;;;;;;8.13;5.82;;;;;;;7.80;100.00;100161.47;5224112;28;20031;-67
2022/11/18 09:50:19;;;;;;;4.13;3.75;;;;;;;7.87;100.00;100162.06;5223837;28;20052;-67
2022/11/18 09:53:16;;;;;;;11.10;5.05;;;;;;;7.96;100.00;100174.00;5225104;28;20032;-68
2022/11/18 09:55:49;;;;;;;4.63;4.32;;;;;;;7.96;100.00;100174.00;5224584;28;20400;-68
2022/11/18 09:58:30;;;;;;;8.52;4.68;;;;;;;7.83;100.00;100152.09;5224049;28;20059;-68
2022/11/18 10:01:02;;;;;;;5.03;4.50;;;;;;;8.05;100.00;100180.53;5223823;28;20029;-69
2022/11/18 10:03:33;;;;;;;9.57;5.25;;;;;;;7.96;100.00;100160.56;5223519;28;20395;-68
2022/11/18 10:06:12;;;;;;;7.18;4.82;;;;;;;8.11;100.00;100182.19;5224066;28;20025;-69
2022/11/18 10:09:25;;;;;;;8.65;5.82;;;;;;;8.16;100.00;100186.78;5225922;28;20143;-69
2022/11/18 10:12:08;;;;;;;7.85;4.75;;;;;;;8.14;100.00;100180.88;5128388;28;20034;-69
2022/11/18 10:14:45;;;;;;;6.10;5.60;;;;;;;8.17;100.00;100182.22;5223571;28;20471;-67
2022/11/18 10:17:23;;;;;;;4.97;4.57;;;;;;;8.16;100.00;100189.50;5229100;28;20246;-67
2022/11/18 10:20:16;;;;;;;11.43;6.38;;;;;;;8.14;100.00;100197.81;5227566;28;20028;-67
2022/11/18 10:23:02;;;;;;;5.68;4.25;;;;;;;8.16;100.00;100191.38;5227640;28;20021;-67
2022/11/18 10:25:32;;;;;;;6.32;5.05;;;;;;;8.16;100.00;100194.06;5227278;28;20350;-67
2022/11/18 10:28:20;;;;;;;11.30;7.22;;;;;;;8.14;100.00;100191.63;5227566;28;20021;-68
2022/11/18 10:30:51;;;;;;;5.55;5.15;;;;;;;8.19;100.00;100205.13;5227107;28;20024;-67
2022/11/18 10:33:21;;;;;;;7.28;5.22;;;;;;;8.27;100.00;100199.28;5227007;28;20076;-68
2022/11/18 10:36:09;;;;;;;6.45;5.78;;;;;;;8.37;100.00;100203.97;5227095;28;20032;-67
2022/11/18 10:38:41;;;;;;;10.25;6.35;;;;;;;8.42;100.00;100198.59;5225455;28;20370;-68
2022/11/18 10:41:15;;;;;;;5.43;5.03;;;;;;;8.48;100.00;100202.97;5226612;28;20082;-69
2022/11/18 10:43:50;;;;;;;9.75;5.78;;;;;;;8.56;100.00;100209.75;5226594;28;20033;-68
2022/11/18 10:46:31;;;;;;;6.45;5.95;;;;;;;8.63;100.00;100210.34;5225470;28;20397;-68
2022/11/18 10:49:08;;;;;;;5.32;4.93;;;;;;;8.73;100.00;100207.69;5226932;28;20048;-68
2022/11/18 10:52:03;;;;;;;9.35;4.75;;;;;;;8.88;100.00;100207.81;5226639;28;20124;-69
2022/11/18 10:54:33;;;;;;;5.85;5.30;;;;;;;9.03;100.00;100207.06;5227645;28;20035;-68
2022/11/18 10:57:09;;;;;;;6.07;5.47;;;;;;;9.22;100.00;100205.56;5226980;28;20024;-69
2022/11/18 10:59:52;;;;;;;6.13;5.57;;;;;;;9.22;100.00;100181.31;5227203;28;20273;-68
2022/11/18 11:02:40;;;;;;;5.30;4.95;;;;;;;9.48;100.00;100204.56;5226190;28;20053;-68
2022/11/18 11:05:22;;;;;;;14.25;5.75;;;;;;;9.54;100.00;100208.06;5226105;28;20028;-69
2022/11/18 11:08:20;;;;;;;7.78;5.22;;;;;;;9.71;100.00;100205.16;5226117;28;20051;-70
2022/11/18 11:10:56;;;;;;;6.50;4.85;;;;;;;9.66;100.00;100170.09;5226262;28;20033;-68
2022/11/18 11:13:30;;;;;;;10.57;4.40;;;;;;;10.04;100.00;100218.19;5226667;28;20017;-68
2022/11/18 11:16:05;;;;;;;6.90;4.78;;;;;;;10.07;100.00;100208.75;5225551;28;20221;-69
2022/11/18 11:18:40;;;;;;;4.65;4.40;;;;;;;10.08;100.00;100210.38;5225679;28;20021;-69
2022/11/18 11:21:16;;;;;;;4.72;4.28;;;;;;;10.05;100.00;100205.50;5226070;28;20036;-69
2022/11/18 11:23:47;;;;;;;6.28;4.40;;;;;;;10.04;100.00;100210.09;5225748;28;20024;-69
2022/11/18 11:26:28;;;;;;;7.93;4.65;;;;;;;10.04;100.00;100215.47;5226218;28;20028;-68
2022/11/18 11:29:28;;;;;;;6.97;4.50;;;;;;;10.13;100.00;100219.25;5226146;28;20025;-68
2022/11/18 11:32:13;;;;;;;;;;;;;;;10.24;100.00;100209.31;5225972;28;20086;-69
2022/11/18 11:35:09;;;;;;;4.25;3.88;;;;;;;10.32;100.00;100207.97;5225727;28;19908;-69
2022/11/18 11:37:50;;;;;;;4.30;3.97;;;;;;;10.37;100.00;100216.88;5226031;28;20056;-68
2022/11/18 11:40:33;;;;;;;6.90;4.15;;;;;;;10.37;100.00;100211.50;5225844;28;20489;-69
2022/11/18 11:43:22;;;;;;;4.40;4.10;;;;;;;10.40;100.00;100218.22;5225898;28;20393;-69
2022/11/18 11:45:59;;;;;;;5.18;4.82;;;;;;;10.35;100.00;100218.22;5225312;28;20043;-69
2022/11/18 11:49:04;;;;;;;3.28;2.97;;;;;;;10.36;100.00;100222.56;5224298;28;20079;-69
2022/11/18 11:51:43;;;;;;;3.83;3.63;;;;;;;10.46;100.00;100222.53;5225854;28;20024;-69
2022/11/18 11:54:23;;;;;;;3.80;3.47;;;;;;;10.37;100.00;100226.88;5225289;28;20028;-69
2022/11/18 11:57:14;;;;;;;12.02;5.35;;;;;;;10.31;100.00;100223.34;5224296;28;20298;-68
2022/11/18 11:59:59;;;;;;;5.70;5.20;;;;;;;10.32;100.00;100234.97;5224697;28;20029;-67
2022/11/18 12:03:07;;;;;;;6.35;4.03;;;;;;;10.30;100.00;100237.13;5225808;28;20501;-70
2022/11/18 12:05:41;;;;;;;4.60;4.05;;;;;;;10.28;100.00;100237.38;5225579;28;20044;-70
2022/11/18 12:08:19;;;;;;;5.32;4.93;;;;;;;10.37;100.00;100234.97;5223701;28;20548;-68
2022/11/18 12:10:58;;;;;;;3.83;3.63;;;;;;;10.30;100.00;100229.03;5225691;28;20025;-69
2022/11/18 12:13:34;;;;;;;5.00;3.47;;;;;;;10.31;100.00;100234.16;5225295;28;20374;-69
2022/11/18 12:16:17;;;;;;;5.22;4.32;;;;;;;10.28;100.00;100225.78;5225037;28;20032;-68
2022/11/18 12:18:57;;;;;;;4.57;4.00;;;;;;;10.22;100.00;100243.03;5226325;28;20029;-69
2022/11/18 12:21:43;;;;;;;4.18;3.85;;;;;;;10.17;100.00;100241.09;5226146;28;20409;-69